Buoy 43533

sailwx.info

Track history (hours):
 
Tides and Currents Weather Stations Pressure Air Temp Water Temp Dewpoint Dewpoint Depression Visibility Wind Speed Wind Dir Waves Ship Positions

Drifting buoy 43533

Last reported at 2014-Oct-24 10:00 UTC. Time now 2014-Oct-24 12:05 UTC.
Position N 20°29' W 107°25'.

Length 24 m.

Type: Fishing. MMSI: 412466549.

Water temperature 29.1 ° C

Date/timePositionNaut miles runAvg speedWind from/ knotsBaromVisibWave heightAir tempDewpointWater temp
2014-Oct-24 10:00N 20°29' W 107°25'1 0.7 29.1
2014-Oct-24 09:00N 20°29' W 107°25'2 0.4 29.1
2014-Oct-24 05:00N 20°30' W 107°23'1 1.1 29.2
2014-Oct-24 04:00N 20°31' W 107°22'0 0.1 29.2
2014-Oct-24 03:00N 20°31' W 107°22'1 1.4 29.2
2014-Oct-24 02:00N 20°32' W 107°21'1 1.4 29.2
2014-Oct-24 01:00N 20°33' W 107°20'0 0.1 29.2
2014-Oct-23 23:00N 20°33' W 107°21'1 1.0 29.3
2014-Oct-23 22:00N 20°33' W 107°20'3 0.9 29.3
2014-Oct-23 19:00N 20°36' W 107°19'1 0.3 29.2
2014-Oct-23 17:00N 20°36' W 107°19'0 0.0 29.1
2014-Oct-23 16:00N 20°36' W 107°19'2 1.7 29.1
2014-Oct-23 15:00N 20°38' W 107°18'0 0.0 29.1
2014-Oct-23 13:00N 20°38' W 107°18'1 0.7 29.1
2014-Oct-23 12:00N 20°38' W 107°17'1 1.0 29.1
2014-Oct-23 11:00N 20°39' W 107°18'1 1.0 29.1
2014-Oct-23 10:00N 20°40' W 107°18'2 0.8 29.1
2014-Oct-23 08:00N 20°40' W 107°17'1 0.4 29.1
2014-Oct-23 05:00N 20°41' W 107°16'0 0.0 29.2
2014-Oct-23 04:00N 20°41' W 107°16'1 1.2 29.2
2014-Oct-23 03:00N 20°42' W 107°15'2 0.6 29.2
2014-Oct-23 00:00N 20°44' W 107°14'1 0.4 29.3
2014-Oct-22 22:00N 20°44' W 107°14'5 1.0 29.4
2014-Oct-22 17:00N 20°49' W 107°13'3 2.6 29.2
2014-Oct-22 16:00N 20°52' W 107°12'2 0.4 29.2
2014-Oct-22 12:00N 20°53' W 107°12'1 1.0 29.2
2014-Oct-22 11:00N 20°54' W 107°12'1 0.7 29.2
2014-Oct-22 10:00N 20°55' W 107°12'5 2.3 29.2
2014-Oct-22 08:00N 20°59' W 107°12'0 0.0 29.2
2014-Oct-22 07:00N 20°59' W 107°12'0 0.0 29.2
2014-Oct-22 05:00N 20°59' W 107°12'1 0.5 29.3
2014-Oct-22 04:00N 20°60' W 107°12'2 1.9 29.3
2014-Oct-22 03:00N 21°02' W 107°12'0 0.0 29.3
2014-Oct-22 02:00N 21°02' W 107°12'1 0.9 29.4
2014-Oct-22 01:00N 21°03' W 107°12'1 1.4 29.5
2014-Oct-22 00:00N 21°04' W 107°12'2 0.9 29.7
2014-Oct-21 22:00N 21°06' W 107°11'2 1.1 30.1
2014-Oct-21 20:00N 21°08' W 107°10'0 0.0 30.3
2014-Oct-21 19:00N 21°08' W 107°10'0 0.0 30.0
2014-Oct-21 18:00N 21°08' W 107°10'2 1.0 29.6
2014-Oct-21 16:00N 21°10' W 107°11'2 1.0 29.2
2014-Oct-21 14:00N 21°12' W 107°11'3 2.7 29.2
2014-Oct-21 13:00N 21°14' W 107°09'0 0.0 29.2
2014-Oct-21 12:00N 21°14' W 107°09'1 0.8 29.2
2014-Oct-21 11:00N 21°15' W 107°10'2 1.1 29.2
2014-Oct-21 09:00N 21°17' W 107°09'4 3.8 29.2
2014-Oct-21 08:00N 21°21' W 107°09'1 0.4 29.2
2014-Oct-21 05:00N 21°22' W 107°08'7 1.2 29.2
2014-Oct-20 23:00N 21°29' W 107°07'0 0.2 29.4
2014-Oct-20 22:00N 21°29' W 107°07'2 2.3 29.4
2014-Oct-20 21:00N 21°31' W 107°07'0 0.1 29.4
2014-Oct-20 20:00N 21°31' W 107°07'4 1.8 29.4
2014-Oct-20 18:00N 21°35' W 107°07'1 0.9 29.3
2014-Oct-20 17:00N 21°36' W 107°07'1 1.3 29.2
2014-Oct-20 16:00N 21°37' W 107°07'0 0.0 29.2
2014-Oct-20 15:00N 21°37' W 107°07'2 1.2 29.2
2014-Oct-20 13:00N 21°40' W 107°06'1 1.1 29.2
2014-Oct-20 12:00N 21°41' W 107°06'3 3.0 29.2
2014-Oct-20 11:00N 21°44' W 107°06'4 2.0 29.2
2014-Oct-20 09:00N 21°48' W 107°05'0 0.0 29.2
2014-Oct-20 05:00N 21°48' W 107°05'1 0.9 29.3
2014-Oct-20 04:00N 21°48' W 107°05'2 1.2 29.3
2014-Oct-20 02:00N 21°51' W 107°04'1 1.0 29.3
2014-Oct-20 01:00N 21°52' W 107°04'2 1.5 29.4
2014-Oct-20 00:00N 21°53' W 107°04'1 1.0 29.4
2014-Oct-19 23:00N 21°54' W 107°04'0 0.1 29.5
2014-Oct-19 22:00N 21°54' W 107°04'2 2.3 29.5
2014-Oct-19 21:00N 21°57' W 107°04'0 0.0 29.6
2014-Oct-19 20:00N 21°57' W 107°04'4 1.4 29.5
2014-Oct-19 17:00N 22°01' W 107°04'1 1.5 29.4
2014-Oct-19 16:00N 22°02' W 107°04'2 0.8 29.3
2014-Oct-19 14:00N 22°04' W 107°05'1 1.4 29.3
2014-Oct-19 13:00N 22°05' W 107°05'1 0.8 29.3
2014-Oct-19 12:00N 22°06' W 107°05'1 0.6 29.3
2014-Oct-19 11:00N 22°06' W 107°05'0 0.0 29.3
2014-Oct-19 10:00N 22°06' W 107°05'5 5.1 29.3
2014-Oct-19 09:00N 22°11' W 107°08'0 0.0 29.3
2014-Oct-19 08:00N 22°11' W 107°08'1 0.2 29.3
2014-Oct-19 05:00N 22°12' W 107°08'2 1.0 29.3
2014-Oct-19 03:00N 22°14' W 107°08'0 0.0 29.4
2014-Oct-19 02:00N 22°14' W 107°08'1 1.2 29.4
2014-Oct-19 01:00N 22°14' W 107°09'1 1.2 29.5
2014-Oct-19 00:00N 22°16' W 107°10'0 0.0 29.6
2014-Oct-18 23:00N 22°16' W 107°10'2 1.7 29.7
2014-Oct-18 22:00N 22°17' W 107°10'0 0.0 29.7
2014-Oct-18 20:00N 22°17' W 107°10'2 1.2 29.7
2014-Oct-18 18:00N 22°20' W 107°11'0 0.1 29.7
2014-Oct-18 17:00N 22°19' W 107°11'1 1.1 29.4
2014-Oct-18 16:00N 22°20' W 107°11'2 2.3 29.3
2014-Oct-18 15:00N 22°22' W 107°13'0 0.0 29.2
2014-Oct-18 14:00N 22°22' W 107°13'2 1.6 29.2
2014-Oct-18 13:00N 22°24' W 107°13'3 1.6 29.2
2014-Oct-18 11:00N 22°27' W 107°14'0 0.0 29.2
2014-Oct-18 10:00N 22°27' W 107°14'4 4.2 29.2
2014-Oct-18 09:00N 22°29' W 107°18'1 0.2 29.2
2014-Oct-18 05:00N 22°30' W 107°18'3 1.7 29.3
2014-Oct-18 03:00N 22°32' W 107°21'2 0.4 29.3
2014-Oct-17 23:00N 22°33' W 107°22'1 1.5 29.5
2014-Oct-17 22:00N 22°34' W 107°23'1 0.7 29.5
2014-Oct-17 21:00N 22°34' W 107°24'0 0.0 29.6
2014-Oct-17 20:00N 22°34' W 107°24'3 1.0 29.7
2014-Oct-17 17:00N 22°36' W 107°27'1 0.7 29.3
2014-Oct-17 16:00N 22°36' W 107°27'0 0.0 29.2
2014-Oct-17 15:00N 22°36' W 107°27'1 0.6 29.2
2014-Oct-17 13:00N 22°37' W 107°28'1 1.3 29.2
2014-Oct-17 12:00N 22°38' W 107°28'0 0.3 29.2
2014-Oct-17 11:00N 22°38' W 107°28'2 1.0 29.2
2014-Oct-17 09:00N 22°40' W 107°30'4 4.0 29.2
2014-Oct-17 08:00N 22°43' W 107°32'0 0.0 29.2
2014-Oct-17 05:00N 22°43' W 107°32'1 0.8 29.2
2014-Oct-17 04:00N 22°43' W 107°33'1 0.7 29.3
2014-Oct-17 03:00N 22°44' W 107°33'3 2.8 29.3
2014-Oct-17 02:00N 22°45' W 107°36'3 1.5 29.3
2014-Oct-17 00:00N 22°47' W 107°39'2 0.6 29.4
2014-Oct-16 21:00N 22°47' W 107°41'0 0.0 29.6
2014-Oct-16 19:00N 22°47' W 107°41'1 1.1 29.6
2014-Oct-16 18:00N 22°48' W 107°42'4 0.7 29.5
2014-Oct-16 12:00N 22°50' W 107°45'2 1.7 29.2
2014-Oct-16 11:00N 22°51' W 107°47'1 0.5 29.1
2014-Oct-16 09:00N 22°52' W 107°48'2 0.5 29.2
2014-Oct-16 05:00N 22°53' W 107°50'4 0.8 29.2
2014-Oct-16 00:00N 22°56' W 107°53'5 0.7 29.4
2014-Oct-15 17:00N 22°58' W 107°57'0 0.5 29.3
2014-Oct-15 16:00N 22°59' W 107°57'1 0.7 29.2
2014-Oct-15 14:00N 22°59' W 107°59'1 1.1 29.1
2014-Oct-15 13:00N 22°60' W 107°60'2 0.6 29.1
2014-Oct-15 10:00N 23°00' W 108°02'1 1.0 29.2
2014-Oct-15 09:00N 23°01' W 108°03'4 0.6 29.2
2014-Oct-15 03:00N 23°02' W 108°06'0 0.0 29.2
2014-Oct-15 02:00N 23°02' W 108°06'0 0.1 29.2
2014-Oct-15 01:00N 23°02' W 108°06'0 0.3 29.2
2014-Oct-15 00:00N 23°02' W 108°06'1 0.6 29.3
2014-Oct-14 23:00N 23°02' W 108°06'2 0.3 29.3
2014-Oct-14 16:00N 23°04' W 108°08'2 0.6 29.2
2014-Oct-14 12:00N 23°05' W 108°10'0 0.0 29.2
2014-Oct-14 11:00N 23°05' W 108°10'   29.2
Track history (hours):
 
Tides and Currents Weather Stations Pressure Air Temp Water Temp Dewpoint Dewpoint Depression Visibility Wind Speed Wind Dir Waves Ship Positions

Drifting buoy 43533

Last reported at 2014-Oct-24 10:00 UTC. Time now 2014-Oct-24 12:05 UTC.
Position N 20°29' W 107°25'.

Length 24 m.

Type: Fishing. MMSI: 412466549.

Water temperature 29.1 ° C

Date/timePositionNaut miles runAvg speedWind from/ knotsBaromVisibWave heightAir tempDewpointWater temp
2014-Oct-24 10:00N 20°29' W 107°25'1 0.7 29.1
2014-Oct-24 09:00N 20°29' W 107°25'2 0.4 29.1
2014-Oct-24 05:00N 20°30' W 107°23'1 1.1 29.2
2014-Oct-24 04:00N 20°31' W 107°22'0 0.1 29.2
2014-Oct-24 03:00N 20°31' W 107°22'1 1.4 29.2
2014-Oct-24 02:00N 20°32' W 107°21'1 1.4 29.2
2014-Oct-24 01:00N 20°33' W 107°20'0 0.1 29.2
2014-Oct-23 23:00N 20°33' W 107°21'1 1.0 29.3
2014-Oct-23 22:00N 20°33' W 107°20'3 0.9 29.3
2014-Oct-23 19:00N 20°36' W 107°19'1 0.3 29.2
2014-Oct-23 17:00N 20°36' W 107°19'0 0.0 29.1
2014-Oct-23 16:00N 20°36' W 107°19'2 1.7 29.1
2014-Oct-23 15:00N 20°38' W 107°18'0 0.0 29.1
2014-Oct-23 13:00N 20°38' W 107°18'1 0.7 29.1
2014-Oct-23 12:00N 20°38' W 107°17'1 1.0 29.1
2014-Oct-23 11:00N 20°39' W 107°18'1 1.0 29.1
2014-Oct-23 10:00N 20°40' W 107°18'2 0.8 29.1
2014-Oct-23 08:00N 20°40' W 107°17'1 0.4 29.1
2014-Oct-23 05:00N 20°41' W 107°16'0 0.0 29.2
2014-Oct-23 04:00N 20°41' W 107°16'1 1.2 29.2
2014-Oct-23 03:00N 20°42' W 107°15'2 0.6 29.2
2014-Oct-23 00:00N 20°44' W 107°14'1 0.4 29.3
2014-Oct-22 22:00N 20°44' W 107°14'5 1.0 29.4
2014-Oct-22 17:00N 20°49' W 107°13'3 2.6 29.2
2014-Oct-22 16:00N 20°52' W 107°12'2 0.4 29.2
2014-Oct-22 12:00N 20°53' W 107°12'1 1.0 29.2
2014-Oct-22 11:00N 20°54' W 107°12'1 0.7 29.2
2014-Oct-22 10:00N 20°55' W 107°12'5 2.3 29.2
2014-Oct-22 08:00N 20°59' W 107°12'0 0.0 29.2
2014-Oct-22 07:00N 20°59' W 107°12'0 0.0 29.2
2014-Oct-22 05:00N 20°59' W 107°12'1 0.5 29.3
2014-Oct-22 04:00N 20°60' W 107°12'2 1.9 29.3
2014-Oct-22 03:00N 21°02' W 107°12'0 0.0 29.3
2014-Oct-22 02:00N 21°02' W 107°12'1 0.9 29.4
2014-Oct-22 01:00N 21°03' W 107°12'1 1.4 29.5
2014-Oct-22 00:00N 21°04' W 107°12'2 0.9 29.7
2014-Oct-21 22:00N 21°06' W 107°11'2 1.1 30.1
2014-Oct-21 20:00N 21°08' W 107°10'0 0.0 30.3
2014-Oct-21 19:00N 21°08' W 107°10'0 0.0 30.0
2014-Oct-21 18:00N 21°08' W 107°10'2 1.0 29.6
2014-Oct-21 16:00N 21°10' W 107°11'2 1.0 29.2
2014-Oct-21 14:00N 21°12' W 107°11'3 2.7 29.2
2014-Oct-21 13:00N 21°14' W 107°09'0 0.0 29.2
2014-Oct-21 12:00N 21°14' W 107°09'1 0.8 29.2
2014-Oct-21 11:00N 21°15' W 107°10'2 1.1 29.2
2014-Oct-21 09:00N 21°17' W 107°09'4 3.8 29.2
2014-Oct-21 08:00N 21°21' W 107°09'1 0.4 29.2
2014-Oct-21 05:00N 21°22' W 107°08'7 1.2 29.2
2014-Oct-20 23:00N 21°29' W 107°07'0 0.2 29.4
2014-Oct-20 22:00N 21°29' W 107°07'2 2.3 29.4
2014-Oct-20 21:00N 21°31' W 107°07'0 0.1 29.4
2014-Oct-20 20:00N 21°31' W 107°07'4 1.8 29.4
2014-Oct-20 18:00N 21°35' W 107°07'1 0.9 29.3
2014-Oct-20 17:00N 21°36' W 107°07'1 1.3 29.2
2014-Oct-20 16:00N 21°37' W 107°07'0 0.0 29.2
2014-Oct-20 15:00N 21°37' W 107°07'2 1.2 29.2
2014-Oct-20 13:00N 21°40' W 107°06'1 1.1 29.2
2014-Oct-20 12:00N 21°41' W 107°06'3 3.0 29.2
2014-Oct-20 11:00N 21°44' W 107°06'4 2.0 29.2
2014-Oct-20 09:00N 21°48' W 107°05'0 0.0 29.2
2014-Oct-20 05:00N 21°48' W 107°05'1 0.9 29.3
2014-Oct-20 04:00N 21°48' W 107°05'2 1.2 29.3
2014-Oct-20 02:00N 21°51' W 107°04'1 1.0 29.3
2014-Oct-20 01:00N 21°52' W 107°04'2 1.5 29.4
2014-Oct-20 00:00N 21°53' W 107°04'1 1.0 29.4
2014-Oct-19 23:00N 21°54' W 107°04'0 0.1 29.5
2014-Oct-19 22:00N 21°54' W 107°04'2 2.3 29.5
2014-Oct-19 21:00N 21°57' W 107°04'0 0.0 29.6
2014-Oct-19 20:00N 21°57' W 107°04'4 1.4 29.5
2014-Oct-19 17:00N 22°01' W 107°04'1 1.5 29.4
2014-Oct-19 16:00N 22°02' W 107°04'2 0.8 29.3
2014-Oct-19 14:00N 22°04' W 107°05'1 1.4 29.3
2014-Oct-19 13:00N 22°05' W 107°05'1 0.8 29.3
2014-Oct-19 12:00N 22°06' W 107°05'1 0.6 29.3
2014-Oct-19 11:00N 22°06' W 107°05'0 0.0 29.3
2014-Oct-19 10:00N 22°06' W 107°05'5 5.1 29.3
2014-Oct-19 09:00N 22°11' W 107°08'0 0.0 29.3
2014-Oct-19 08:00N 22°11' W 107°08'1 0.2 29.3
2014-Oct-19 05:00N 22°12' W 107°08'2 1.0 29.3
2014-Oct-19 03:00N 22°14' W 107°08'0 0.0 29.4
2014-Oct-19 02:00N 22°14' W 107°08'1 1.2 29.4
2014-Oct-19 01:00N 22°14' W 107°09'1 1.2 29.5
2014-Oct-19 00:00N 22°16' W 107°10'0 0.0 29.6
2014-Oct-18 23:00N 22°16' W 107°10'2 1.7 29.7
2014-Oct-18 22:00N 22°17' W 107°10'0 0.0 29.7
2014-Oct-18 20:00N 22°17' W 107°10'2 1.2 29.7
2014-Oct-18 18:00N 22°20' W 107°11'0 0.1 29.7
2014-Oct-18 17:00N 22°19' W 107°11'1 1.1 29.4
2014-Oct-18 16:00N 22°20' W 107°11'2 2.3 29.3
2014-Oct-18 15:00N 22°22' W 107°13'0 0.0 29.2
2014-Oct-18 14:00N 22°22' W 107°13'2 1.6 29.2
2014-Oct-18 13:00N 22°24' W 107°13'3 1.6 29.2
2014-Oct-18 11:00N 22°27' W 107°14'0 0.0 29.2
2014-Oct-18 10:00N 22°27' W 107°14'4 4.2 29.2
2014-Oct-18 09:00N 22°29' W 107°18'1 0.2 29.2
2014-Oct-18 05:00N 22°30' W 107°18'3 1.7 29.3
2014-Oct-18 03:00N 22°32' W 107°21'2 0.4 29.3
2014-Oct-17 23:00N 22°33' W 107°22'1 1.5 29.5
2014-Oct-17 22:00N 22°34' W 107°23'1 0.7 29.5
2014-Oct-17 21:00N 22°34' W 107°24'0 0.0 29.6
2014-Oct-17 20:00N 22°34' W 107°24'3 1.0 29.7
2014-Oct-17 17:00N 22°36' W 107°27'1 0.7 29.3
2014-Oct-17 16:00N 22°36' W 107°27'0 0.0 29.2
2014-Oct-17 15:00N 22°36' W 107°27'1 0.6 29.2
2014-Oct-17 13:00N 22°37' W 107°28'1 1.3 29.2
2014-Oct-17 12:00N 22°38' W 107°28'0 0.3 29.2
2014-Oct-17 11:00N 22°38' W 107°28'2 1.0 29.2
2014-Oct-17 09:00N 22°40' W 107°30'4 4.0 29.2
2014-Oct-17 08:00N 22°43' W 107°32'0 0.0 29.2
2014-Oct-17 05:00N 22°43' W 107°32'1 0.8 29.2
2014-Oct-17 04:00N 22°43' W 107°33'1 0.7 29.3
2014-Oct-17 03:00N 22°44' W 107°33'3 2.8 29.3
2014-Oct-17 02:00N 22°45' W 107°36'3 1.5 29.3
2014-Oct-17 00:00N 22°47' W 107°39'2 0.6 29.4
2014-Oct-16 21:00N 22°47' W 107°41'0 0.0 29.6
2014-Oct-16 19:00N 22°47' W 107°41'1 1.1 29.6
2014-Oct-16 18:00N 22°48' W 107°42'4 0.7 29.5
2014-Oct-16 12:00N 22°50' W 107°45'2 1.7 29.2
2014-Oct-16 11:00N 22°51' W 107°47'1 0.5 29.1
2014-Oct-16 09:00N 22°52' W 107°48'2 0.5 29.2
2014-Oct-16 05:00N 22°53' W 107°50'4 0.8 29.2
2014-Oct-16 00:00N 22°56' W 107°53'5 0.7 29.4
2014-Oct-15 17:00N 22°58' W 107°57'0 0.5 29.3
2014-Oct-15 16:00N 22°59' W 107°57'1 0.7 29.2
2014-Oct-15 14:00N 22°59' W 107°59'1 1.1 29.1
2014-Oct-15 13:00N 22°60' W 107°60'2 0.6 29.1
2014-Oct-15 10:00N 23°00' W 108°02'1 1.0 29.2
2014-Oct-15 09:00N 23°01' W 108°03'4 0.6 29.2
2014-Oct-15 03:00N 23°02' W 108°06'0 0.0 29.2
2014-Oct-15 02:00N 23°02' W 108°06'0 0.1 29.2
2014-Oct-15 01:00N 23°02' W 108°06'0 0.3 29.2
2014-Oct-15 00:00N 23°02' W 108°06'1 0.6 29.3
2014-Oct-14 23:00N 23°02' W 108°06'2 0.3 29.3
2014-Oct-14 16:00N 23°04' W 108°08'2 0.6 29.2
2014-Oct-14 12:00N 23°05' W 108°10'0 0.0 29.2
2014-Oct-14 11:00N 23°05' W 108°10'   29.2

Dump ship's entire track history